Bookmark and Share
Track history (hours):
 

Tortola's Pride

Last reported at 2014-Feb-04 02:31 UTC. Time now 2014-Apr-21 15:19 UTC.
Position N 18°11' W 063°33'.
Warning: this ship's position is months out of date.

Length 49 m; draft 2.8 m.

Type: Cargo ship. MMSI: 355921000.

NotesDate/timePositionNaut miles runAvg speedWind from/ knotsBaromVisibWave heightAir tempDewpointWater temp
2014-Feb-04 02:31N 18°11' W 063°33'1010.1
2014-Feb-04 01:33N 18°09' W 063°23'1010.3
2014-Feb-04 00:33N 18°06' W 063°12'7 7.1
2014-Feb-03 23:33N 18°05' W 063°05'0 0.0
2014-Feb-03 22:32N 18°05' W 063°05'0 0.0
2014-Feb-03 21:32N 18°05' W 063°05'6 6.0
2014-Feb-03 20:33N 18°08' W 063°10'5 0.6
2014-Feb-03 11:22N 18°12' W 063°06'7 8.2
2014-Feb-03 10:33N 18°13' W 063°13'  
2014-Jan-29 05:33N 18°10' W 063°29'10 9.9
2014-Jan-29 04:33N 18°08' W 063°19'10 9.8
2014-Jan-29 03:33N 18°06' W 063°09'3 3.4
2014-Jan-29 02:32N 18°05' W 063°05'0 0.0
2014-Jan-29 01:33N 18°05' W 063°05'0 0.0
2014-Jan-29 00:33N 18°05' W 063°05'0 0.0
2014-Jan-28 23:33N 18°05' W 063°05'0 0.0
2014-Jan-28 22:33N 18°05' W 063°05'3 3.0
2014-Jan-28 21:33N 18°07' W 063°08'6 5.5
2014-Jan-28 20:33N 18°12' W 063°07'2 0.2
2014-Jan-28 11:31N 18°12' W 063°08'5 5.6
2014-Jan-28 10:33N 18°06' W 063°07'2 2.2
2014-Jan-28 09:29N 18°05' W 063°05'0 0.0
2014-Jan-28 08:32N 18°05' W 063°05'0 0.0
2014-Jan-28 07:31N 18°05' W 063°05'0 0.0
2014-Jan-28 06:33N 18°05' W 063°05'0 0.0
2014-Jan-28 05:33N 18°05' W 063°05'0 0.0
2014-Jan-28 04:33N 18°05' W 063°05'0 0.0
2014-Jan-28 03:32N 18°05' W 063°05'0 0.0
2014-Jan-28 02:33N 18°05' W 063°05'0 0.0
2014-Jan-28 01:33N 18°05' W 063°05'0 0.0
2014-Jan-28 00:33N 18°05' W 063°05'2 1.6
2014-Jan-27 23:33N 18°05' W 063°07'8 8.4
2014-Jan-27 22:33N 18°07' W 063°15'8 8.2
2014-Jan-27 21:33N 18°09' W 063°24'8 8.0
2014-Jan-27 20:33N 18°11' W 063°32'  

Dump ship's entire track history

sailing weather and tide predictions

Tortola's Pride — HO-3796 — position and weather